sensor_id;sensor_type;location;lat;lon;timestamp;P1;durP1;ratioP1;P2;durP2;ratioP2
21494;SDS011;10909;53.590;10.054;2022-11-06T00:01:09;3.07;;;2.13;;
21494;SDS011;10909;53.590;10.054;2022-11-06T00:03:36;2.77;;;2.33;;
21494;SDS011;10909;53.590;10.054;2022-11-06T00:06:08;4.23;;;1.93;;
21494;SDS011;10909;53.590;10.054;2022-11-06T00:08:53;3.97;;;2.17;;
21494;SDS011;10909;53.590;10.054;2022-11-06T00:11:19;2.40;;;1.93;;
21494;SDS011;10909;53.590;10.054;2022-11-06T00:13:45;3.87;;;2.00;;
21494;SDS011;10909;53.590;10.054;2022-11-06T00:16:12;2.63;;;1.90;;
21494;SDS011;10909;53.590;10.054;2022-11-06T00:18:39;3.23;;;2.10;;
21494;SDS011;10909;53.590;10.054;2022-11-06T00:21:06;2.53;;;2.17;;
21494;SDS011;10909;53.590;10.054;2022-11-06T00:23:33;2.93;;;2.33;;
21494;SDS011;10909;53.590;10.054;2022-11-06T00:25:59;2.93;;;2.30;;
21494;SDS011;10909;53.590;10.054;2022-11-06T00:28:25;3.00;;;2.30;;
21494;SDS011;10909;53.590;10.054;2022-11-06T00:30:50;2.70;;;2.03;;
21494;SDS011;10909;53.590;10.054;2022-11-06T00:33:24;3.03;;;1.83;;
21494;SDS011;10909;53.590;10.054;2022-11-06T00:35:49;2.87;;;2.20;;
21494;SDS011;10909;53.590;10.054;2022-11-06T00:38:15;2.77;;;2.13;;
21494;SDS011;10909;53.590;10.054;2022-11-06T00:40:40;2.30;;;2.10;;
21494;SDS011;10909;53.590;10.054;2022-11-06T00:43:06;3.77;;;2.13;;
21494;SDS011;10909;53.590;10.054;2022-11-06T00:45:32;3.67;;;2.63;;
21494;SDS011;10909;53.590;10.054;2022-11-06T00:47:57;3.90;;;2.80;;
21494;SDS011;10909;53.590;10.054;2022-11-06T00:50:23;2.73;;;2.20;;
21494;SDS011;10909;53.590;10.054;2022-11-06T00:52:50;4.27;;;2.03;;
21494;SDS011;10909;53.590;10.054;2022-11-06T00:55:16;2.10;;;1.90;;
21494;SDS011;10909;53.590;10.054;2022-11-06T00:57:42;2.83;;;2.03;;
21494;SDS011;10909;53.590;10.054;2022-11-06T01:00:07;2.80;;;2.03;;
21494;SDS011;10909;53.590;10.054;2022-11-06T01:02:35;2.43;;;1.90;;
21494;SDS011;10909;53.590;10.054;2022-11-06T01:05:01;2.90;;;1.90;;
21494;SDS011;10909;53.590;10.054;2022-11-06T01:07:27;4.00;;;1.97;;
21494;SDS011;10909;53.590;10.054;2022-11-06T01:09:53;2.23;;;1.83;;
21494;SDS011;10909;53.590;10.054;2022-11-06T01:12:18;2.03;;;1.83;;
21494;SDS011;10909;53.590;10.054;2022-11-06T01:14:44;2.73;;;1.97;;
21494;SDS011;10909;53.590;10.054;2022-11-06T01:17:10;2.70;;;1.70;;
21494;SDS011;10909;53.590;10.054;2022-11-06T01:19:37;2.33;;;1.67;;
21494;SDS011;10909;53.590;10.054;2022-11-06T01:22:03;3.47;;;2.10;;
21494;SDS011;10909;53.590;10.054;2022-11-06T01:24:29;3.80;;;2.10;;
21494;SDS011;10909;53.590;10.054;2022-11-06T01:26:54;2.07;;;1.80;;
21494;SDS011;10909;53.590;10.054;2022-11-06T01:29:21;3.60;;;1.93;;
21494;SDS011;10909;53.590;10.054;2022-11-06T01:31:47;2.70;;;1.90;;
21494;SDS011;10909;53.590;10.054;2022-11-06T01:34:15;2.03;;;1.73;;
21494;SDS011;10909;53.590;10.054;2022-11-06T01:36:42;2.27;;;1.97;;
21494;SDS011;10909;53.590;10.054;2022-11-06T01:39:09;5.67;;;2.47;;
21494;SDS011;10909;53.590;10.054;2022-11-06T01:41:42;2.00;;;1.80;;
21494;SDS011;10909;53.590;10.054;2022-11-06T01:46:57;2.83;;;1.93;;
21494;SDS011;10909;53.590;10.054;2022-11-06T01:49:24;2.13;;;1.80;;
21494;SDS011;10909;53.590;10.054;2022-11-06T01:51:58;2.23;;;1.87;;
21494;SDS011;10909;53.590;10.054;2022-11-06T01:54:27;2.40;;;1.77;;
21494;SDS011;10909;53.590;10.054;2022-11-06T01:56:57;2.63;;;1.90;;
21494;SDS011;10909;53.590;10.054;2022-11-06T01:59:26;2.10;;;1.90;;
21494;SDS011;10909;53.590;10.054;2022-11-06T02:01:54;4.07;;;2.27;;
21494;SDS011;10909;53.590;10.054;2022-11-06T02:06:47;2.50;;;1.70;;
21494;SDS011;10909;53.590;10.054;2022-11-06T02:09:13;2.87;;;2.00;;
21494;SDS011;10909;53.590;10.054;2022-11-06T02:11:40;2.17;;;1.70;;
21494;SDS011;10909;53.590;10.054;2022-11-06T02:14:13;2.87;;;1.80;;
21494;SDS011;10909;53.590;10.054;2022-11-06T02:16:46;2.23;;;1.90;;
21494;SDS011;10909;53.590;10.054;2022-11-06T02:22:38;2.63;;;1.80;;
21494;SDS011;10909;53.590;10.054;2022-11-06T02:25:45;4.13;;;1.90;;
21494;SDS011;10909;53.590;10.054;2022-11-06T02:28:41;2.07;;;1.87;;
21494;SDS011;10909;53.590;10.054;2022-11-06T02:31:14;5.30;;;2.20;;
21494;SDS011;10909;53.590;10.054;2022-11-06T02:33:48;1.90;;;1.70;;
21494;SDS011;10909;53.590;10.054;2022-11-06T02:36:18;2.63;;;2.13;;
21494;SDS011;10909;53.590;10.054;2022-11-06T02:38:50;2.40;;;1.90;;
21494;SDS011;10909;53.590;10.054;2022-11-06T02:41:21;2.47;;;2.00;;
21494;SDS011;10909;53.590;10.054;2022-11-06T02:43:51;4.57;;;2.43;;
21494;SDS011;10909;53.590;10.054;2022-11-06T02:48:57;2.07;;;1.77;;
21494;SDS011;10909;53.590;10.054;2022-11-06T02:51:27;3.23;;;2.13;;
21494;SDS011;10909;53.590;10.054;2022-11-06T02:53:57;3.40;;;2.17;;
21494;SDS011;10909;53.590;10.054;2022-11-06T02:56:26;2.73;;;1.83;;
21494;SDS011;10909;53.590;10.054;2022-11-06T02:59:19;3.00;;;2.10;;
21494;SDS011;10909;53.590;10.054;2022-11-06T03:02:06;2.80;;;1.80;;
21494;SDS011;10909;53.590;10.054;2022-11-06T03:04:42;3.87;;;2.13;;
21494;SDS011;10909;53.590;10.054;2022-11-06T03:07:30;3.27;;;1.97;;
21494;SDS011;10909;53.590;10.054;2022-11-06T03:10:02;2.40;;;2.17;;
21494;SDS011;10909;53.590;10.054;2022-11-06T03:18:01;2.77;;;1.87;;
21494;SDS011;10909;53.590;10.054;2022-11-06T03:21:16;2.67;;;2.10;;
21494;SDS011;10909;53.590;10.054;2022-11-06T03:23:41;4.03;;;2.10;;
21494;SDS011;10909;53.590;10.054;2022-11-06T03:26:19;3.90;;;1.97;;
21494;SDS011;10909;53.590;10.054;2022-11-06T03:28:55;2.27;;;2.07;;
21494;SDS011;10909;53.590;10.054;2022-11-06T03:31:37;3.93;;;2.20;;
21494;SDS011;10909;53.590;10.054;2022-11-06T03:34:11;3.07;;;2.03;;
21494;SDS011;10909;53.590;10.054;2022-11-06T03:36:43;3.07;;;2.03;;
21494;SDS011;10909;53.590;10.054;2022-11-06T03:39:14;2.40;;;1.77;;
21494;SDS011;10909;53.590;10.054;2022-11-06T03:41:46;2.57;;;2.07;;
21494;SDS011;10909;53.590;10.054;2022-11-06T03:44:21;3.57;;;2.00;;
21494;SDS011;10909;53.590;10.054;2022-11-06T03:46:54;3.37;;;2.07;;
21494;SDS011;10909;53.590;10.054;2022-11-06T03:49:37;3.37;;;1.90;;
21494;SDS011;10909;53.590;10.054;2022-11-06T03:52:12;4.87;;;2.23;;
21494;SDS011;10909;53.590;10.054;2022-11-06T03:54:53;2.70;;;1.90;;
21494;SDS011;10909;53.590;10.054;2022-11-06T03:57:24;4.23;;;1.90;;
21494;SDS011;10909;53.590;10.054;2022-11-06T03:59:57;3.40;;;2.20;;
21494;SDS011;10909;53.590;10.054;2022-11-06T04:02:25;3.00;;;1.80;;
21494;SDS011;10909;53.590;10.054;2022-11-06T04:04:56;2.43;;;2.00;;
21494;SDS011;10909;53.590;10.054;2022-11-06T04:07:32;4.33;;;2.10;;
21494;SDS011;10909;53.590;10.054;2022-11-06T04:10:09;2.30;;;1.90;;
21494;SDS011;10909;53.590;10.054;2022-11-06T04:12:57;3.50;;;1.93;;
21494;SDS011;10909;53.590;10.054;2022-11-06T04:15:49;2.57;;;1.87;;
21494;SDS011;10909;53.590;10.054;2022-11-06T04:18:18;1.97;;;1.67;;
21494;SDS011;10909;53.590;10.054;2022-11-06T04:20:53;2.20;;;1.90;;
21494;SDS011;10909;53.590;10.054;2022-11-06T04:23:51;2.30;;;1.80;;
21494;SDS011;10909;53.590;10.054;2022-11-06T04:27:05;2.10;;;1.83;;
21494;SDS011;10909;53.590;10.054;2022-11-06T04:32:17;2.63;;;1.80;;
21494;SDS011;10909;53.590;10.054;2022-11-06T04:37:42;3.80;;;1.87;;
21494;SDS011;10909;53.590;10.054;2022-11-06T04:45:39;3.67;;;1.90;;
21494;SDS011;10909;53.590;10.054;2022-11-06T04:48:09;3.50;;;1.80;;
21494;SDS011;10909;53.590;10.054;2022-11-06T04:50:43;3.33;;;1.77;;
21494;SDS011;10909;53.590;10.054;2022-11-06T04:53:13;3.30;;;1.80;;
21494;SDS011;10909;53.590;10.054;2022-11-06T04:55:48;2.23;;;1.80;;
21494;SDS011;10909;53.590;10.054;2022-11-06T04:58:16;2.63;;;2.10;;
21494;SDS011;10909;53.590;10.054;2022-11-06T05:00:44;4.30;;;2.00;;
21494;SDS011;10909;53.590;10.054;2022-11-06T05:03:12;3.37;;;2.03;;
21494;SDS011;10909;53.590;10.054;2022-11-06T05:05:38;2.17;;;1.90;;
21494;SDS011;10909;53.590;10.054;2022-11-06T05:08:04;4.63;;;2.40;;
21494;SDS011;10909;53.590;10.054;2022-11-06T05:10:30;2.90;;;2.30;;
21494;SDS011;10909;53.590;10.054;2022-11-06T05:12:56;2.03;;;1.47;;
21494;SDS011;10909;53.590;10.054;2022-11-06T05:15:22;2.83;;;1.97;;
21494;SDS011;10909;53.590;10.054;2022-11-06T05:17:48;4.33;;;1.90;;
21494;SDS011;10909;53.590;10.054;2022-11-06T05:20:14;3.17;;;1.77;;
21494;SDS011;10909;53.590;10.054;2022-11-06T05:22:40;2.07;;;1.60;;
21494;SDS011;10909;53.590;10.054;2022-11-06T05:25:22;2.90;;;1.53;;
21494;SDS011;10909;53.590;10.054;2022-11-06T05:27:49;3.10;;;2.10;;
21494;SDS011;10909;53.590;10.054;2022-11-06T05:30:14;2.73;;;2.00;;
21494;SDS011;10909;53.590;10.054;2022-11-06T05:32:40;2.10;;;1.67;;
21494;SDS011;10909;53.590;10.054;2022-11-06T05:35:06;2.63;;;1.90;;
21494;SDS011;10909;53.590;10.054;2022-11-06T05:37:32;2.10;;;1.90;;
21494;SDS011;10909;53.590;10.054;2022-11-06T05:39:58;3.03;;;1.87;;
21494;SDS011;10909;53.590;10.054;2022-11-06T05:42:23;3.63;;;1.80;;
21494;SDS011;10909;53.590;10.054;2022-11-06T05:44:49;2.57;;;1.73;;
21494;SDS011;10909;53.590;10.054;2022-11-06T05:47:14;3.10;;;2.13;;
21494;SDS011;10909;53.590;10.054;2022-11-06T05:49:40;2.20;;;1.80;;
21494;SDS011;10909;53.590;10.054;2022-11-06T05:52:05;3.90;;;1.87;;
21494;SDS011;10909;53.590;10.054;2022-11-06T05:54:31;3.23;;;2.00;;
21494;SDS011;10909;53.590;10.054;2022-11-06T05:56:57;2.43;;;1.70;;
21494;SDS011;10909;53.590;10.054;2022-11-06T05:59:23;2.80;;;1.80;;
21494;SDS011;10909;53.590;10.054;2022-11-06T06:01:48;2.53;;;1.80;;
21494;SDS011;10909;53.590;10.054;2022-11-06T06:04:14;3.20;;;1.83;;
21494;SDS011;10909;53.590;10.054;2022-11-06T06:06:40;4.07;;;2.00;;
21494;SDS011;10909;53.590;10.054;2022-11-06T06:09:06;3.13;;;1.67;;
21494;SDS011;10909;53.590;10.054;2022-11-06T06:11:31;2.47;;;1.90;;
21494;SDS011;10909;53.590;10.054;2022-11-06T06:13:58;2.20;;;1.73;;
21494;SDS011;10909;53.590;10.054;2022-11-06T06:16:24;3.50;;;2.07;;
21494;SDS011;10909;53.590;10.054;2022-11-06T06:18:50;3.33;;;1.77;;
21494;SDS011;10909;53.590;10.054;2022-11-06T06:21:16;2.33;;;1.87;;
21494;SDS011;10909;53.590;10.054;2022-11-06T06:23:41;3.70;;;1.70;;
21494;SDS011;10909;53.590;10.054;2022-11-06T06:26:07;2.00;;;1.70;;
21494;SDS011;10909;53.590;10.054;2022-11-06T06:28:33;1.93;;;1.50;;
21494;SDS011;10909;53.590;10.054;2022-11-06T06:31:03;4.03;;;1.80;;
21494;SDS011;10909;53.590;10.054;2022-11-06T06:33:29;2.77;;;1.77;;
21494;SDS011;10909;53.590;10.054;2022-11-06T06:35:55;2.53;;;1.87;;
21494;SDS011;10909;53.590;10.054;2022-11-06T06:38:21;2.70;;;2.10;;
21494;SDS011;10909;53.590;10.054;2022-11-06T06:40:47;2.70;;;1.70;;
21494;SDS011;10909;53.590;10.054;2022-11-06T06:43:12;2.70;;;1.93;;
21494;SDS011;10909;53.590;10.054;2022-11-06T06:45:40;1.80;;;1.60;;
21494;SDS011;10909;53.590;10.054;2022-11-06T06:48:05;2.50;;;1.77;;
21494;SDS011;10909;53.590;10.054;2022-11-06T06:50:32;2.60;;;1.73;;
21494;SDS011;10909;53.590;10.054;2022-11-06T06:52:58;3.27;;;1.50;;
21494;SDS011;10909;53.590;10.054;2022-11-06T06:55:23;2.10;;;1.60;;
21494;SDS011;10909;53.590;10.054;2022-11-06T06:57:58;2.80;;;1.80;;
21494;SDS011;10909;53.590;10.054;2022-11-06T07:00:25;2.87;;;1.67;;
21494;SDS011;10909;53.590;10.054;2022-11-06T07:02:51;3.07;;;2.00;;
21494;SDS011;10909;53.590;10.054;2022-11-06T07:05:17;2.00;;;1.80;;
21494;SDS011;10909;53.590;10.054;2022-11-06T07:07:43;3.00;;;2.00;;
21494;SDS011;10909;53.590;10.054;2022-11-06T07:10:09;3.20;;;1.50;;
21494;SDS011;10909;53.590;10.054;2022-11-06T07:12:35;2.10;;;1.60;;
21494;SDS011;10909;53.590;10.054;2022-11-06T07:15:01;2.33;;;1.70;;
21494;SDS011;10909;53.590;10.054;2022-11-06T07:17:27;2.87;;;1.37;;
21494;SDS011;10909;53.590;10.054;2022-11-06T07:19:53;2.67;;;1.80;;
21494;SDS011;10909;53.590;10.054;2022-11-06T07:22:18;3.00;;;1.70;;
21494;SDS011;10909;53.590;10.054;2022-11-06T07:24:44;2.03;;;1.67;;
21494;SDS011;10909;53.590;10.054;2022-11-06T07:27:09;2.30;;;1.87;;
21494;SDS011;10909;53.590;10.054;2022-11-06T07:29:35;2.00;;;1.60;;
21494;SDS011;10909;53.590;10.054;2022-11-06T07:32:01;2.03;;;1.57;;
21494;SDS011;10909;53.590;10.054;2022-11-06T07:34:27;2.53;;;1.83;;
21494;SDS011;10909;53.590;10.054;2022-11-06T07:36:52;3.73;;;1.30;;
21494;SDS011;10909;53.590;10.054;2022-11-06T07:39:18;3.37;;;1.67;;
21494;SDS011;10909;53.590;10.054;2022-11-06T07:41:44;2.50;;;1.60;;
21494;SDS011;10909;53.590;10.054;2022-11-06T07:44:09;2.57;;;1.37;;
21494;SDS011;10909;53.590;10.054;2022-11-06T07:46:35;2.87;;;1.40;;
21494;SDS011;10909;53.590;10.054;2022-11-06T07:49:01;4.07;;;1.63;;
21494;SDS011;10909;53.590;10.054;2022-11-06T07:51:27;2.33;;;1.70;;
21494;SDS011;10909;53.590;10.054;2022-11-06T07:53:52;3.80;;;1.50;;
21494;SDS011;10909;53.590;10.054;2022-11-06T07:56:18;2.90;;;1.53;;
21494;SDS011;10909;53.590;10.054;2022-11-06T07:58:44;4.47;;;1.50;;
21494;SDS011;10909;53.590;10.054;2022-11-06T08:01:18;2.43;;;1.50;;
21494;SDS011;10909;53.590;10.054;2022-11-06T08:03:44;1.87;;;1.40;;
21494;SDS011;10909;53.590;10.054;2022-11-06T08:06:10;3.43;;;1.33;;
21494;SDS011;10909;53.590;10.054;2022-11-06T08:08:36;2.30;;;1.80;;
21494;SDS011;10909;53.590;10.054;2022-11-06T08:11:06;2.57;;;1.60;;
21494;SDS011;10909;53.590;10.054;2022-11-06T08:13:33;3.20;;;1.77;;
21494;SDS011;10909;53.590;10.054;2022-11-06T08:16:06;2.67;;;1.57;;
21494;SDS011;10909;53.590;10.054;2022-11-06T08:18:36;4.67;;;1.67;;
21494;SDS011;10909;53.590;10.054;2022-11-06T08:21:03;2.00;;;1.50;;
21494;SDS011;10909;53.590;10.054;2022-11-06T08:23:29;3.00;;;1.70;;
21494;SDS011;10909;53.590;10.054;2022-11-06T08:25:56;2.23;;;1.47;;
21494;SDS011;10909;53.590;10.054;2022-11-06T08:28:24;1.73;;;1.10;;
21494;SDS011;10909;53.590;10.054;2022-11-06T08:30:50;1.70;;;1.40;;
21494;SDS011;10909;53.590;10.054;2022-11-06T08:33:17;3.03;;;1.70;;
21494;SDS011;10909;53.590;10.054;2022-11-06T08:35:44;5.23;;;1.60;;
21494;SDS011;10909;53.590;10.054;2022-11-06T08:38:10;2.80;;;1.60;;
21494;SDS011;10909;53.590;10.054;2022-11-06T08:40:36;3.57;;;1.70;;
21494;SDS011;10909;53.590;10.054;2022-11-06T08:43:07;2.80;;;1.47;;
21494;SDS011;10909;53.590;10.054;2022-11-06T08:45:38;3.20;;;1.40;;
21494;SDS011;10909;53.590;10.054;2022-11-06T08:48:05;2.87;;;1.53;;
21494;SDS011;10909;53.590;10.054;2022-11-06T08:50:31;1.90;;;1.37;;
21494;SDS011;10909;53.590;10.054;2022-11-06T08:52:59;2.93;;;1.23;;
21494;SDS011;10909;53.590;10.054;2022-11-06T08:55:28;1.80;;;1.23;;
21494;SDS011;10909;53.590;10.054;2022-11-06T08:57:54;2.13;;;1.37;;
21494;SDS011;10909;53.590;10.054;2022-11-06T09:00:20;4.50;;;1.53;;
21494;SDS011;10909;53.590;10.054;2022-11-06T09:02:46;2.67;;;1.70;;
21494;SDS011;10909;53.590;10.054;2022-11-06T09:05:11;1.33;;;1.20;;
21494;SDS011;10909;53.590;10.054;2022-11-06T09:07:37;2.53;;;1.30;;
21494;SDS011;10909;53.590;10.054;2022-11-06T09:10:02;2.53;;;1.40;;
21494;SDS011;10909;53.590;10.054;2022-11-06T09:12:28;2.70;;;1.40;;
21494;SDS011;10909;53.590;10.054;2022-11-06T09:14:54;2.47;;;1.33;;
21494;SDS011;10909;53.590;10.054;2022-11-06T09:17:19;3.10;;;1.33;;
21494;SDS011;10909;53.590;10.054;2022-11-06T09:19:48;2.23;;;1.50;;
21494;SDS011;10909;53.590;10.054;2022-11-06T09:22:15;2.47;;;1.40;;
21494;SDS011;10909;53.590;10.054;2022-11-06T09:24:41;3.23;;;1.60;;
21494;SDS011;10909;53.590;10.054;2022-11-06T09:27:06;1.43;;;1.33;;
21494;SDS011;10909;53.590;10.054;2022-11-06T09:29:32;2.33;;;1.40;;
21494;SDS011;10909;53.590;10.054;2022-11-06T09:31:57;1.80;;;1.50;;
21494;SDS011;10909;53.590;10.054;2022-11-06T09:34:23;1.73;;;1.27;;
21494;SDS011;10909;53.590;10.054;2022-11-06T09:36:49;2.70;;;1.37;;
21494;SDS011;10909;53.590;10.054;2022-11-06T09:39:14;2.53;;;1.50;;
21494;SDS011;10909;53.590;10.054;2022-11-06T09:41:52;3.87;;;1.50;;
21494;SDS011;10909;53.590;10.054;2022-11-06T09:45:06;2.90;;;1.63;;
21494;SDS011;10909;53.590;10.054;2022-11-06T09:47:21;2.80;;;1.30;;
21494;SDS011;10909;53.590;10.054;2022-11-06T09:49:51;2.53;;;1.50;;
21494;SDS011;10909;53.590;10.054;2022-11-06T09:52:21;2.90;;;1.67;;
21494;SDS011;10909;53.590;10.054;2022-11-06T09:55:00;2.57;;;1.20;;
21494;SDS011;10909;53.590;10.054;2022-11-06T09:57:46;2.77;;;1.20;;
21494;SDS011;10909;53.590;10.054;2022-11-06T10:00:21;1.30;;;1.20;;
21494;SDS011;10909;53.590;10.054;2022-11-06T10:02:51;2.97;;;1.50;;
21494;SDS011;10909;53.590;10.054;2022-11-06T10:08:44;2.00;;;1.33;;
21494;SDS011;10909;53.590;10.054;2022-11-06T10:11:00;1.33;;;1.10;;
21494;SDS011;10909;53.590;10.054;2022-11-06T10:27:02;1.67;;;1.20;;
21494;SDS011;10909;53.590;10.054;2022-11-06T10:35:18;1.77;;;1.08;;
21494;SDS011;10909;53.590;10.054;2022-11-06T10:37:57;2.67;;;1.45;;
21494;SDS011;10909;53.590;10.054;2022-11-06T10:40:24;2.42;;;1.30;;
21494;SDS011;10909;53.590;10.054;2022-11-06T10:46:05;2.70;;;1.15;;
21494;SDS011;10909;53.590;10.054;2022-11-06T10:48:46;1.83;;;1.10;;
21494;SDS011;10909;53.590;10.054;2022-11-06T10:51:21;2.95;;;1.60;;
21494;SDS011;10909;53.590;10.054;2022-11-06T10:56:52;2.80;;;1.20;;
21494;SDS011;10909;53.590;10.054;2022-11-06T10:59:22;2.85;;;1.30;;
21494;SDS011;10909;53.590;10.054;2022-11-06T11:01:48;2.55;;;1.30;;
21494;SDS011;10909;53.590;10.054;2022-11-06T11:04:14;2.67;;;1.20;;
21494;SDS011;10909;53.590;10.054;2022-11-06T11:06:39;2.40;;;1.23;;
21494;SDS011;10909;53.590;10.054;2022-11-06T11:11:57;2.50;;;1.60;;
21494;SDS011;10909;53.590;10.054;2022-11-06T11:14:24;2.33;;;1.10;;
21494;SDS011;10909;53.590;10.054;2022-11-06T11:16:52;1.50;;;0.95;;
21494;SDS011;10909;53.590;10.054;2022-11-06T11:21:56;2.00;;;1.23;;
21494;SDS011;10909;53.590;10.054;2022-11-06T11:24:24;2.03;;;1.30;;
21494;SDS011;10909;53.590;10.054;2022-11-06T11:26:53;2.45;;;1.48;;
21494;SDS011;10909;53.590;10.054;2022-11-06T11:32:15;2.53;;;1.27;;
21494;SDS011;10909;53.590;10.054;2022-11-06T11:34:44;1.95;;;1.30;;
21494;SDS011;10909;53.590;10.054;2022-11-06T11:37:26;2.03;;;1.10;;
21494;SDS011;10909;53.590;10.054;2022-11-06T11:40:17;1.88;;;1.20;;
21494;SDS011;10909;53.590;10.054;2022-11-06T11:43:16;2.03;;;1.33;;
21494;SDS011;10909;53.590;10.054;2022-11-06T11:54:14;3.83;;;1.40;;
21494;SDS011;10909;53.590;10.054;2022-11-06T11:56:57;2.95;;;1.30;;
21494;SDS011;10909;53.590;10.054;2022-11-06T11:59:40;1.80;;;1.27;;
21494;SDS011;10909;53.590;10.054;2022-11-06T12:02:17;1.20;;;1.10;;
21494;SDS011;10909;53.590;10.054;2022-11-06T12:05:00;2.30;;;1.30;;
21494;SDS011;10909;53.590;10.054;2022-11-06T12:07:47;2.03;;;1.20;;
21494;SDS011;10909;53.590;10.054;2022-11-06T12:10:24;2.58;;;1.40;;
21494;SDS011;10909;53.590;10.054;2022-11-06T12:12:57;2.22;;;1.10;;
21494;SDS011;10909;53.590;10.054;2022-11-06T12:15:27;1.98;;;1.10;;
21494;SDS011;10909;53.590;10.054;2022-11-06T12:23:02;1.67;;;1.20;;
21494;SDS011;10909;53.590;10.054;2022-11-06T12:25:35;2.90;;;1.42;;
21494;SDS011;10909;53.590;10.054;2022-11-06T12:28:04;2.38;;;1.30;;
21494;SDS011;10909;53.590;10.054;2022-11-06T12:30:36;1.85;;;1.10;;
21494;SDS011;10909;53.590;10.054;2022-11-06T12:33:10;1.52;;;1.08;;
21494;SDS011;10909;53.590;10.054;2022-11-06T12:35:43;1.80;;;1.23;;
21494;SDS011;10909;53.590;10.054;2022-11-06T12:38:19;2.40;;;1.20;;
21494;SDS011;10909;53.590;10.054;2022-11-06T12:40:56;1.42;;;1.02;;
21494;SDS011;10909;53.590;10.054;2022-11-06T12:43:46;1.92;;;1.10;;
21494;SDS011;10909;53.590;10.054;2022-11-06T12:59:31;1.77;;;1.15;;
21494;SDS011;10909;53.590;10.054;2022-11-06T13:04:52;2.00;;;1.13;;
21494;SDS011;10909;53.590;10.054;2022-11-06T13:16:31;1.38;;;1.10;;
21494;SDS011;10909;53.590;10.054;2022-11-06T13:30:44;1.60;;;1.20;;
21494;SDS011;10909;53.590;10.054;2022-11-06T13:33:16;1.60;;;1.23;;
21494;SDS011;10909;53.590;10.054;2022-11-06T13:35:48;1.30;;;1.10;;
21494;SDS011;10909;53.590;10.054;2022-11-06T13:38:33;1.90;;;1.27;;
21494;SDS011;10909;53.590;10.054;2022-11-06T13:41:12;1.83;;;1.08;;
21494;SDS011;10909;53.590;10.054;2022-11-06T13:43:52;2.30;;;1.40;;
21494;SDS011;10909;53.590;10.054;2022-11-06T13:52:02;1.55;;;1.00;;
21494;SDS011;10909;53.590;10.054;2022-11-06T13:57:35;2.70;;;1.20;;
21494;SDS011;10909;53.590;10.054;2022-11-06T14:00:19;1.10;;;1.00;;
21494;SDS011;10909;53.590;10.054;2022-11-06T14:08:48;1.70;;;1.30;;
21494;SDS011;10909;53.590;10.054;2022-11-06T14:11:26;2.55;;;1.58;;
21494;SDS011;10909;53.590;10.054;2022-11-06T14:16:37;1.92;;;1.35;;
21494;SDS011;10909;53.590;10.054;2022-11-06T14:19:06;1.65;;;1.30;;
21494;SDS011;10909;53.590;10.054;2022-11-06T14:27:03;1.75;;;1.45;;
21494;SDS011;10909;53.590;10.054;2022-11-06T14:34:56;1.38;;;1.20;;
21494;SDS011;10909;53.590;10.054;2022-11-06T14:40:12;2.60;;;1.30;;
21494;SDS011;10909;53.590;10.054;2022-11-06T14:42:39;1.55;;;1.38;;
21494;SDS011;10909;53.590;10.054;2022-11-06T14:45:14;2.58;;;1.50;;
21494;SDS011;10909;53.590;10.054;2022-11-06T14:47:41;1.60;;;1.33;;
21494;SDS011;10909;53.590;10.054;2022-11-06T14:50:27;2.58;;;1.60;;
21494;SDS011;10909;53.590;10.054;2022-11-06T14:53:00;1.75;;;1.52;;
21494;SDS011;10909;53.590;10.054;2022-11-06T14:55:41;1.88;;;1.58;;
21494;SDS011;10909;53.590;10.054;2022-11-06T14:58:10;1.80;;;1.63;;
21494;SDS011;10909;53.590;10.054;2022-11-06T15:01:11;1.63;;;1.20;;
21494;SDS011;10909;53.590;10.054;2022-11-06T15:03:53;2.15;;;1.35;;
21494;SDS011;10909;53.590;10.054;2022-11-06T15:12:05;1.35;;;1.20;;
21494;SDS011;10909;53.590;10.054;2022-11-06T15:17:12;1.77;;;1.60;;
21494;SDS011;10909;53.590;10.054;2022-11-06T15:22:14;2.00;;;1.63;;
21494;SDS011;10909;53.590;10.054;2022-11-06T15:27:47;1.98;;;1.70;;
21494;SDS011;10909;53.590;10.054;2022-11-06T15:30:27;1.77;;;1.50;;
21494;SDS011;10909;53.590;10.054;2022-11-06T15:32:55;2.42;;;1.67;;
21494;SDS011;10909;53.590;10.054;2022-11-06T15:35:25;3.15;;;1.70;;
21494;SDS011;10909;53.590;10.054;2022-11-06T15:38:35;2.33;;;1.50;;
21494;SDS011;10909;53.590;10.054;2022-11-06T15:40:44;1.73;;;1.30;;
21494;SDS011;10909;53.590;10.054;2022-11-06T15:46:02;1.55;;;1.45;;
21494;SDS011;10909;53.590;10.054;2022-11-06T15:48:40;2.40;;;1.70;;
21494;SDS011;10909;53.590;10.054;2022-11-06T15:51:26;2.38;;;1.75;;
21494;SDS011;10909;53.590;10.054;2022-11-06T15:53:53;2.13;;;1.87;;
21494;SDS011;10909;53.590;10.054;2022-11-06T15:56:23;4.53;;;1.97;;
21494;SDS011;10909;53.590;10.054;2022-11-06T15:59:13;2.70;;;1.57;;
21494;SDS011;10909;53.590;10.054;2022-11-06T16:01:44;1.90;;;1.70;;
21494;SDS011;10909;53.590;10.054;2022-11-06T16:04:14;3.10;;;1.85;;
21494;SDS011;10909;53.590;10.054;2022-11-06T16:06:43;2.00;;;1.80;;
21494;SDS011;10909;53.590;10.054;2022-11-06T16:09:18;2.70;;;1.63;;
21494;SDS011;10909;53.590;10.054;2022-11-06T16:11:46;1.85;;;1.65;;
21494;SDS011;10909;53.590;10.054;2022-11-06T16:14:16;2.55;;;1.80;;
21494;SDS011;10909;53.590;10.054;2022-11-06T16:16:50;2.07;;;1.63;;
21494;SDS011;10909;53.590;10.054;2022-11-06T16:22:03;1.87;;;1.53;;
21494;SDS011;10909;53.590;10.054;2022-11-06T16:24:36;3.30;;;1.90;;
21494;SDS011;10909;53.590;10.054;2022-11-06T16:27:06;2.63;;;1.80;;
21494;SDS011;10909;53.590;10.054;2022-11-06T16:29:33;2.67;;;1.70;;
21494;SDS011;10909;53.590;10.054;2022-11-06T16:32:01;2.70;;;1.67;;
21494;SDS011;10909;53.590;10.054;2022-11-06T16:34:40;2.33;;;1.60;;
21494;SDS011;10909;53.590;10.054;2022-11-06T16:39:46;3.90;;;1.70;;
21494;SDS011;10909;53.590;10.054;2022-11-06T16:47:33;2.63;;;1.60;;
21494;SDS011;10909;53.590;10.054;2022-11-06T16:49:58;2.80;;;1.97;;
21494;SDS011;10909;53.590;10.054;2022-11-06T16:52:27;2.73;;;2.30;;
21494;SDS011;10909;53.590;10.054;2022-11-06T16:57:44;3.60;;;1.70;;
21494;SDS011;10909;53.590;10.054;2022-11-06T17:05:14;1.97;;;1.70;;
21494;SDS011;10909;53.590;10.054;2022-11-06T17:07:46;2.67;;;1.60;;
21494;SDS011;10909;53.590;10.054;2022-11-06T17:10:26;2.77;;;1.30;;
21494;SDS011;10909;53.590;10.054;2022-11-06T17:13:24;3.43;;;1.80;;
21494;SDS011;10909;53.590;10.054;2022-11-06T17:16:00;2.87;;;1.50;;
21494;SDS011;10909;53.590;10.054;2022-11-06T17:18:28;2.63;;;1.70;;
21494;SDS011;10909;53.590;10.054;2022-11-06T17:21:00;2.20;;;1.70;;
21494;SDS011;10909;53.590;10.054;2022-11-06T17:23:29;2.23;;;1.63;;
21494;SDS011;10909;53.590;10.054;2022-11-06T17:25:57;3.80;;;2.17;;
21494;SDS011;10909;53.590;10.054;2022-11-06T17:28:26;2.37;;;1.80;;
21494;SDS011;10909;53.590;10.054;2022-11-06T17:30:51;3.67;;;1.90;;
21494;SDS011;10909;53.590;10.054;2022-11-06T17:33:17;2.77;;;1.93;;
21494;SDS011;10909;53.590;10.054;2022-11-06T17:35:43;2.93;;;1.83;;
21494;SDS011;10909;53.590;10.054;2022-11-06T17:38:11;2.73;;;1.60;;
21494;SDS011;10909;53.590;10.054;2022-11-06T17:40:38;2.47;;;1.60;;
21494;SDS011;10909;53.590;10.054;2022-11-06T17:43:04;2.30;;;1.73;;
21494;SDS011;10909;53.590;10.054;2022-11-06T17:45:30;1.93;;;1.50;;
21494;SDS011;10909;53.590;10.054;2022-11-06T17:47:56;1.77;;;1.30;;
21494;SDS011;10909;53.590;10.054;2022-11-06T17:50:22;2.37;;;1.50;;
21494;SDS011;10909;53.590;10.054;2022-11-06T17:52:48;3.40;;;1.70;;
21494;SDS011;10909;53.590;10.054;2022-11-06T17:55:13;2.57;;;1.50;;